createdAt,value
2022-11-04T00:01:16.839Z,44.03
2022-11-04T00:03:43.665Z,43.77
2022-11-04T00:06:10.292Z,43.86
2022-11-04T00:08:37.154Z,43.75
2022-11-04T00:11:22.752Z,43.48
2022-11-04T00:13:49.397Z,43.37
2022-11-04T00:16:34.694Z,43.42
2022-11-04T00:19:02.223Z,43.32
2022-11-04T00:21:48.029Z,43.15
2022-11-04T00:24:30.289Z,43.27
2022-11-04T00:27:16.351Z,43.13
2022-11-04T00:29:43.067Z,43.40
2022-11-04T00:32:29.205Z,43.43
2022-11-04T00:34:56.093Z,43.36
2022-11-04T00:37:23.184Z,43.39
2022-11-04T00:39:49.771Z,43.28
2022-11-04T00:42:16.405Z,43.47
2022-11-04T00:44:43.005Z,43.41
2022-11-04T00:47:09.568Z,43.41
2022-11-04T00:49:36.127Z,43.39
2022-11-04T00:52:02.667Z,43.63
2022-11-04T00:54:29.283Z,43.44
2022-11-04T00:56:56.180Z,43.63
2022-11-04T00:59:22.769Z,43.35
2022-11-04T01:01:49.454Z,43.41
2022-11-04T01:04:16.265Z,43.48
2022-11-04T01:06:42.847Z,43.39
2022-11-04T01:09:12.009Z,43.51
2022-11-04T01:11:38.747Z,43.30
2022-11-04T01:14:05.567Z,43.23
2022-11-04T01:16:32.225Z,43.54
2022-11-04T01:18:59.099Z,43.51
2022-11-04T01:21:28.240Z,43.36
2022-11-04T01:23:55.135Z,43.45
2022-11-04T01:26:25.187Z,43.35
2022-11-04T01:28:54.580Z,43.61
2022-11-04T01:31:23.902Z,43.26
2022-11-04T01:33:52.392Z,43.49
2022-11-04T01:36:20.203Z,43.28
2022-11-04T01:38:47.342Z,43.36
2022-11-04T01:41:22.890Z,43.27
2022-11-04T01:43:54.362Z,43.32
2022-11-04T01:46:25.595Z,43.46
2022-11-04T01:48:53.810Z,43.38
2022-11-04T01:51:20.990Z,43.29
2022-11-04T01:53:50.439Z,43.34
2022-11-04T01:56:17.409Z,43.57
2022-11-04T01:58:51.651Z,43.22
2022-11-04T02:01:19.385Z,43.22
2022-11-04T02:03:53.147Z,43.37
2022-11-04T02:06:22.285Z,43.20
2022-11-04T02:08:49.489Z,43.20
2022-11-04T02:11:36.226Z,43.22
2022-11-04T02:14:03.085Z,43.43
2022-11-04T02:16:45.140Z,43.34
2022-11-04T02:19:20.790Z,43.19
2022-11-04T02:22:19.666Z,43.38
2022-11-04T02:24:58.055Z,43.21
2022-11-04T02:27:57.023Z,43.34
2022-11-04T02:30:23.922Z,43.07
2022-11-04T02:33:10.306Z,43.38
2022-11-04T02:35:43.846Z,43.28
2022-11-04T02:38:31.887Z,43.26
2022-11-04T02:41:01.224Z,43.32
2022-11-04T02:44:10.349Z,43.11
2022-11-04T02:46:55.022Z,43.48
2022-11-04T02:49:52.913Z,43.25
2022-11-04T02:52:42.216Z,43.19
2022-11-04T02:55:18.035Z,43.26
2022-11-04T02:57:47.068Z,43.35
2022-11-04T03:00:14.944Z,43.19
2022-11-04T03:02:53.005Z,43.10
2022-11-04T03:05:28.294Z,43.29
2022-11-04T03:07:58.791Z,43.17
2022-11-04T03:10:33.061Z,43.30
2022-11-04T03:13:11.794Z,43.45
2022-11-04T03:15:41.999Z,43.08
2022-11-04T03:18:16.596Z,43.12
2022-11-04T03:20:46.402Z,43.20
2022-11-04T03:23:13.627Z,43.37
2022-11-04T03:25:45.130Z,43.22
2022-11-04T03:28:37.400Z,43.38
2022-11-04T03:31:06.826Z,43.25
2022-11-04T03:33:46.263Z,43.06
2022-11-04T03:36:13.211Z,43.27
2022-11-04T03:38:39.874Z,43.33
2022-11-04T03:41:20.124Z,43.45
2022-11-04T03:43:46.713Z,43.16
2022-11-04T03:46:13.618Z,43.34
2022-11-04T03:48:41.820Z,43.04
2022-11-04T03:51:09.488Z,43.29
2022-11-04T03:53:36.481Z,43.37
2022-11-04T03:56:27.456Z,43.20
2022-11-04T03:59:15.400Z,43.30
2022-11-04T04:01:44.684Z,43.27
2022-11-04T04:04:19.984Z,43.06
2022-11-04T04:06:46.934Z,43.20
2022-11-04T04:09:21.614Z,43.19
2022-11-04T04:12:25.150Z,43.03
2022-11-04T04:14:56.351Z,43.39
2022-11-04T04:17:45.979Z,43.41
2022-11-04T04:20:18.408Z,43.06
2022-11-04T04:23:03.305Z,43.12
2022-11-04T04:25:50.894Z,43.01
2022-11-04T04:28:19.451Z,43.21
2022-11-04T04:30:46.537Z,43.14
2022-11-04T04:33:18.599Z,43.17
2022-11-04T04:35:54.322Z,43.15
2022-11-04T04:38:45.000Z,43.18
2022-11-04T04:41:32.199Z,43.08
2022-11-04T04:44:17.858Z,43.27
2022-11-04T04:46:49.452Z,43.32
2022-11-04T04:49:16.101Z,43.41
2022-11-04T04:51:45.734Z,43.16
2022-11-04T04:54:12.353Z,43.12
2022-11-04T04:56:38.892Z,43.42
2022-11-04T04:59:05.958Z,43.38
2022-11-04T05:01:33.261Z,43.17
2022-11-04T05:03:59.919Z,43.12
2022-11-04T05:06:28.366Z,43.27
2022-11-04T05:10:22.616Z,43.47
2022-11-04T05:13:07.893Z,43.41
2022-11-04T05:15:34.528Z,43.46
2022-11-04T05:18:03.555Z,43.33
2022-11-04T05:20:32.819Z,43.52
2022-11-04T05:23:00.132Z,43.57
2022-11-04T05:25:27.887Z,43.29
2022-11-04T05:27:54.375Z,43.61
2022-11-04T05:30:20.934Z,43.41
2022-11-04T05:32:47.563Z,43.44
2022-11-04T05:35:14.179Z,43.46
2022-11-04T05:37:40.783Z,43.43
2022-11-04T05:40:07.890Z,43.56
2022-11-04T05:42:36.690Z,43.35
2022-11-04T05:45:04.383Z,43.26
2022-11-04T05:47:30.886Z,43.10
2022-11-04T05:49:57.424Z,43.43
2022-11-04T05:52:23.972Z,43.50
2022-11-04T05:54:50.568Z,43.27
2022-11-04T05:57:17.045Z,43.46
2022-11-04T05:59:43.637Z,43.46
2022-11-04T06:02:10.247Z,43.30
2022-11-04T06:04:36.897Z,43.16
2022-11-04T06:07:03.439Z,43.60
2022-11-04T06:09:39.188Z,43.53
2022-11-04T06:12:07.049Z,43.30
2022-11-04T06:14:33.563Z,43.31
2022-11-04T06:17:00.859Z,43.18
2022-11-04T06:19:27.491Z,43.57
2022-11-04T06:21:54.124Z,43.55
2022-11-04T06:24:20.623Z,43.36
2022-11-04T06:26:50.183Z,43.55
2022-11-04T06:29:16.767Z,43.45
2022-11-04T06:31:43.363Z,43.37
2022-11-04T06:34:10.094Z,43.56
2022-11-04T06:36:36.689Z,43.83
2022-11-04T06:39:05.419Z,43.65
2022-11-04T06:41:32.127Z,43.79
2022-11-04T06:43:58.699Z,43.74
2022-11-04T06:46:45.627Z,43.40
2022-11-04T06:49:14.801Z,43.83
2022-11-04T06:51:41.770Z,43.58
2022-11-04T06:54:08.363Z,43.82
2022-11-04T06:56:34.904Z,43.65
2022-11-04T06:59:02.015Z,43.68
2022-11-04T07:01:31.479Z,43.85
2022-11-04T07:04:00.114Z,43.52
2022-11-04T07:06:29.079Z,43.49
2022-11-04T07:08:58.945Z,43.57
2022-11-04T07:11:26.985Z,43.74
2022-11-04T07:13:53.568Z,43.92
2022-11-04T07:16:20.120Z,43.84
2022-11-04T07:18:49.176Z,44.02
2022-11-04T07:21:16.239Z,43.95
2022-11-04T07:23:45.697Z,44.04
2022-11-04T07:26:12.985Z,43.79
2022-11-04T07:28:40.265Z,43.86
2022-11-04T07:31:09.147Z,43.99
2022-11-04T07:33:35.814Z,43.97
2022-11-04T07:36:11.603Z,43.67
2022-11-04T07:38:38.246Z,43.69
2022-11-04T07:41:05.229Z,43.77
2022-11-04T07:43:31.995Z,43.54
2022-11-04T07:46:00.255Z,43.81
2022-11-04T07:48:27.599Z,43.70
2022-11-04T07:50:59.617Z,43.70
2022-11-04T07:53:26.662Z,43.27
2022-11-04T07:55:53.254Z,43.22
2022-11-04T07:58:20.759Z,42.80
2022-11-04T08:00:47.555Z,42.78
2022-11-04T08:03:14.460Z,42.96
2022-11-04T08:05:41.153Z,43.07
2022-11-04T08:08:07.901Z,43.02
2022-11-04T08:10:35.067Z,43.40
2022-11-04T08:13:01.607Z,43.48
2022-11-04T08:15:29.167Z,43.47
2022-11-04T08:17:55.874Z,43.41
2022-11-04T08:20:22.801Z,43.57
2022-11-04T08:22:49.338Z,43.47
2022-11-04T08:25:16.836Z,43.71
2022-11-04T08:27:43.858Z,43.81
2022-11-04T08:30:10.927Z,43.41
2022-11-04T08:32:37.534Z,43.77
2022-11-04T08:35:06.432Z,43.67
2022-11-04T08:37:33.859Z,43.54
2022-11-04T08:40:00.446Z,43.58
2022-11-04T08:42:30.019Z,43.62
2022-11-04T08:44:56.700Z,43.38
2022-11-04T08:47:23.257Z,43.20
2022-11-04T08:49:49.788Z,43.12
2022-11-04T08:52:16.362Z,43.21
2022-11-04T08:54:44.155Z,43.06
2022-11-04T08:57:11.154Z,43.33
2022-11-04T08:59:37.870Z,43.17
2022-11-04T09:02:04.467Z,43.41
2022-11-04T09:04:31.075Z,42.98
2022-11-04T09:06:57.800Z,43.11
2022-11-04T09:09:24.298Z,43.00
2022-11-04T09:11:50.936Z,42.98
2022-11-04T09:14:17.938Z,43.00
2022-11-04T09:16:44.719Z,43.04
2022-11-04T09:19:11.379Z,42.83
2022-11-04T09:21:37.971Z,43.10
2022-11-04T09:24:05.980Z,42.85
2022-11-04T09:26:32.838Z,42.79
2022-11-04T09:29:00.263Z,43.01
2022-11-04T09:31:30.201Z,43.14
2022-11-04T09:33:57.604Z,43.10
2022-11-04T09:36:24.375Z,43.12
2022-11-04T09:38:50.935Z,43.17
2022-11-04T09:41:20.526Z,42.79
2022-11-04T09:44:03.775Z,42.86
2022-11-04T09:46:33.860Z,42.70
2022-11-04T09:49:03.000Z,42.90
2022-11-04T09:51:53.112Z,42.64
2022-11-04T09:54:55.175Z,42.66
2022-11-04T09:57:21.923Z,42.87
2022-11-04T09:59:48.966Z,42.61
2022-11-04T10:02:34.018Z,42.80
2022-11-04T10:05:12.482Z,42.88
2022-11-04T10:07:53.144Z,42.81
2022-11-04T10:10:45.984Z,42.51
2022-11-04T10:13:21.722Z,42.68
2022-11-04T10:15:57.665Z,42.46
2022-11-04T10:18:48.735Z,42.66
2022-11-04T10:21:43.811Z,42.43
2022-11-04T10:24:25.173Z,42.64
2022-11-04T10:27:00.998Z,42.51
2022-11-04T10:29:51.995Z,42.60
2022-11-04T10:32:28.075Z,42.58
2022-11-04T10:35:04.509Z,42.34
2022-11-04T10:37:31.338Z,42.62
2022-11-04T10:40:17.251Z,42.71
2022-11-04T10:42:44.048Z,42.42
2022-11-04T10:45:14.681Z,42.62
2022-11-04T10:47:52.298Z,42.47
2022-11-04T10:50:30.598Z,42.33
2022-11-04T10:53:20.793Z,42.63
2022-11-04T10:55:51.908Z,42.71
2022-11-04T10:58:25.351Z,42.66
2022-11-04T11:00:53.322Z,42.82
2022-11-04T11:03:31.114Z,42.40
2022-11-04T11:06:19.650Z,42.73
2022-11-04T11:08:48.124Z,42.78
2022-11-04T11:11:16.142Z,42.67
2022-11-04T11:13:45.251Z,42.89
2022-11-04T11:16:27.075Z,42.32
2022-11-04T11:19:12.074Z,42.45
2022-11-04T11:21:50.256Z,42.61
2022-11-04T11:24:23.110Z,42.56
2022-11-04T11:27:01.499Z,42.44
2022-11-04T11:29:31.450Z,42.73
2022-11-04T11:32:00.822Z,42.52
2022-11-04T11:34:32.286Z,42.51
2022-11-04T11:37:02.283Z,42.52
2022-11-04T11:39:32.353Z,42.76
2022-11-04T11:42:06.344Z,42.67
2022-11-04T11:44:48.285Z,42.59
2022-11-04T11:47:28.161Z,42.66
2022-11-04T11:50:19.541Z,42.57
2022-11-04T11:52:48.124Z,42.59
2022-11-04T11:55:27.678Z,42.73
2022-11-04T12:00:56.894Z,42.59
2022-11-04T12:09:49.524Z,42.51
2022-11-04T12:12:21.995Z,42.17
2022-11-04T12:14:51.302Z,42.33
2022-11-04T12:17:26.589Z,42.77
2022-11-04T12:19:55.968Z,42.56
2022-11-04T12:22:53.336Z,42.76
2022-11-04T12:25:33.864Z,42.54
2022-11-04T12:28:37.226Z,42.70
2022-11-04T12:31:28.771Z,42.73
2022-11-04T12:34:01.387Z,42.62
2022-11-04T12:36:44.158Z,42.67
2022-11-04T12:39:16.688Z,42.70
2022-11-04T12:42:20.207Z,42.54
2022-11-04T12:45:03.596Z,42.71
2022-11-04T12:47:44.970Z,42.64
2022-11-04T12:50:19.470Z,42.62
2022-11-04T12:53:01.185Z,42.60
2022-11-04T12:55:49.378Z,42.46
2022-11-04T12:58:44.717Z,42.72
2022-11-04T13:01:46.937Z,42.59
2022-11-04T13:04:28.270Z,42.42
2022-11-04T13:07:01.133Z,42.69
2022-11-04T13:09:38.824Z,42.72
2022-11-04T13:12:11.718Z,42.52
2022-11-04T13:14:45.031Z,42.50
2022-11-04T13:17:16.167Z,42.45
2022-11-04T13:19:48.553Z,42.39
2022-11-04T13:22:25.583Z,42.69
2022-11-04T13:25:10.993Z,42.47
2022-11-04T13:27:40.748Z,42.33
2022-11-04T13:30:35.588Z,42.60
2022-11-04T13:33:02.566Z,42.44
2022-11-04T13:35:55.458Z,42.50
2022-11-04T13:38:41.065Z,42.56
2022-11-04T13:41:22.654Z,42.70
2022-11-04T13:43:56.138Z,42.75
2022-11-04T13:46:23.751Z,42.50
2022-11-04T13:51:12.135Z,42.52
2022-11-04T13:56:31.554Z,42.73
2022-11-04T13:59:01.181Z,42.63
2022-11-04T14:01:31.225Z,42.75
2022-11-04T14:07:04.958Z,42.34
2022-11-04T14:12:11.143Z,42.46
2022-11-04T14:14:42.748Z,42.78
2022-11-04T14:17:35.240Z,43.01
2022-11-04T14:20:26.022Z,43.31
2022-11-04T14:23:00.999Z,43.54
2022-11-04T14:26:02.756Z,43.74
2022-11-04T14:28:31.355Z,43.94
2022-11-04T14:31:03.799Z,44.18
2022-11-04T14:33:36.070Z,44.33
2022-11-04T14:36:21.044Z,44.49
2022-11-04T14:38:59.471Z,44.87
2022-11-04T14:41:28.851Z,45.12
2022-11-04T14:43:58.804Z,45.02
2022-11-04T14:46:30.143Z,45.18
2022-11-04T14:49:01.055Z,45.25
2022-11-04T14:51:40.032Z,45.33
2022-11-04T14:54:22.238Z,45.60
2022-11-04T14:56:48.772Z,45.46
2022-11-04T14:59:29.810Z,45.12
2022-11-04T15:01:56.654Z,44.95
2022-11-04T15:04:30.947Z,45.11
2022-11-04T15:07:00.358Z,45.33
2022-11-04T15:09:49.128Z,45.35
2022-11-04T15:12:37.575Z,45.49
2022-11-04T15:15:27.467Z,45.47
2022-11-04T15:17:59.307Z,45.20
2022-11-04T15:20:30.374Z,44.81
2022-11-04T15:23:00.258Z,45.01
2022-11-04T15:25:27.123Z,45.02
2022-11-04T15:30:21.906Z,44.76
2022-11-04T15:33:03.236Z,44.66
2022-11-04T15:35:32.617Z,44.91
2022-11-04T15:38:01.776Z,44.57
2022-11-04T15:40:29.681Z,44.80
2022-11-04T15:42:58.862Z,44.74
2022-11-04T15:45:29.160Z,44.72
2022-11-04T15:48:31.002Z,44.71
2022-11-04T15:51:23.760Z,44.79
2022-11-04T15:53:54.696Z,44.77
2022-11-04T15:56:26.867Z,44.61
2022-11-04T15:58:55.495Z,44.66
2022-11-04T16:01:23.046Z,44.84
2022-11-04T16:03:57.989Z,44.71
2022-11-04T16:06:33.776Z,44.73
2022-11-04T16:09:12.315Z,44.85
2022-11-04T16:11:38.950Z,44.66
2022-11-04T16:14:19.715Z,44.88
2022-11-04T16:16:49.827Z,44.87
2022-11-04T16:19:23.361Z,45.09
2022-11-04T16:22:03.155Z,45.05
2022-11-04T16:24:35.870Z,45.12
2022-11-04T16:27:02.593Z,45.29
2022-11-04T16:29:35.241Z,45.63
2022-11-04T16:32:19.688Z,45.72
2022-11-04T16:34:48.347Z,45.69
2022-11-04T16:37:15.038Z,45.72
2022-11-04T16:39:44.188Z,45.59
2022-11-04T16:42:13.894Z,45.62
2022-11-04T16:47:01.166Z,46.07
2022-11-04T16:49:27.981Z,45.93
2022-11-04T16:51:57.063Z,45.95
2022-11-04T16:54:24.598Z,45.80
2022-11-04T16:56:51.225Z,45.75
2022-11-04T16:59:17.895Z,45.69
2022-11-04T17:01:44.546Z,45.75
2022-11-04T17:04:11.329Z,45.78
2022-11-04T17:06:38.724Z,45.45
2022-11-04T17:09:18.817Z,45.65
2022-11-04T17:11:45.463Z,45.66
2022-11-04T17:14:11.991Z,45.37
2022-11-04T17:16:38.663Z,45.51
2022-11-04T17:19:08.524Z,45.75
2022-11-04T17:21:35.196Z,45.45
2022-11-04T17:24:01.775Z,45.61
2022-11-04T17:26:28.323Z,45.60
2022-11-04T17:28:54.892Z,45.65
2022-11-04T17:31:21.643Z,45.63
2022-11-04T17:33:48.137Z,45.53
2022-11-04T17:36:18.366Z,45.96
2022-11-04T17:38:46.032Z,45.63
2022-11-04T17:41:31.082Z,45.88
2022-11-04T17:44:00.586Z,45.76
2022-11-04T17:46:34.792Z,45.63
2022-11-04T17:49:04.590Z,45.67
2022-11-04T17:51:31.471Z,45.87
2022-11-04T17:53:57.996Z,45.93
2022-11-04T17:56:25.190Z,45.76
2022-11-04T17:58:53.266Z,45.82
2022-11-04T18:01:22.253Z,45.86
2022-11-04T18:03:52.134Z,45.77
2022-11-04T18:06:20.218Z,45.91
2022-11-04T18:08:47.863Z,45.86
2022-11-04T18:11:35.024Z,45.68
2022-11-04T18:14:01.738Z,45.72
2022-11-04T18:16:28.432Z,45.44
2022-11-04T18:18:55.111Z,45.57
2022-11-04T18:23:55.131Z,45.53
2022-11-04T18:26:22.214Z,45.56
2022-11-04T18:28:48.814Z,45.40
2022-11-04T18:31:26.983Z,45.48
2022-11-04T18:33:54.909Z,45.35
2022-11-04T18:36:22.025Z,45.30
2022-11-04T18:38:51.763Z,45.19
2022-11-04T18:41:18.386Z,45.30
2022-11-04T18:43:45.151Z,45.54
2022-11-04T18:46:13.952Z,45.61
2022-11-04T18:48:41.593Z,45.45
2022-11-04T18:51:11.704Z,45.45
2022-11-04T18:53:38.514Z,45.54
2022-11-04T18:56:11.059Z,45.55
2022-11-04T18:58:39.006Z,45.64
2022-11-04T19:01:19.392Z,45.66
2022-11-04T19:03:46.764Z,46.01
2022-11-04T19:06:17.165Z,45.99
2022-11-04T19:08:46.619Z,45.63
2022-11-04T19:11:20.460Z,45.67
2022-11-04T19:13:56.582Z,45.91
2022-11-04T19:16:24.947Z,46.17
2022-11-04T19:18:52.922Z,46.31
2022-11-04T19:21:21.874Z,46.54
2022-11-04T19:23:49.511Z,46.84
2022-11-04T19:26:23.900Z,47.06
2022-11-04T19:28:51.427Z,47.16
2022-11-04T19:31:24.216Z,47.11
2022-11-04T19:33:52.050Z,46.91
2022-11-04T19:36:22.194Z,46.77
2022-11-04T19:38:52.671Z,46.97
2022-11-04T19:41:38.803Z,46.92
2022-11-04T19:44:15.810Z,46.69
2022-11-04T19:46:42.582Z,46.92
2022-11-04T19:49:10.031Z,46.70
2022-11-04T19:51:37.243Z,46.70
2022-11-04T19:54:04.339Z,47.03
2022-11-04T19:58:47.019Z,47.24
2022-11-04T20:01:16.291Z,47.02
2022-11-04T20:03:47.619Z,47.09
2022-11-04T20:06:16.348Z,47.08
2022-11-04T20:08:44.844Z,46.95
2022-11-04T20:11:13.000Z,46.71
2022-11-04T20:13:49.263Z,46.67
2022-11-04T20:16:28.195Z,46.71
2022-11-04T20:18:59.828Z,46.47
2022-11-04T20:21:30.182Z,46.54
2022-11-04T20:23:58.318Z,46.38
2022-11-04T20:26:27.255Z,46.63
2022-11-04T20:28:56.200Z,46.32
2022-11-04T20:31:28.736Z,46.39
2022-11-04T20:33:56.863Z,46.41
2022-11-04T20:36:28.378Z,46.08
2022-11-04T20:38:59.612Z,46.44
2022-11-04T20:41:26.882Z,45.98
2022-11-04T20:43:56.744Z,46.04
2022-11-04T20:46:26.683Z,46.11
2022-11-04T20:48:54.856Z,45.82
2022-11-04T20:51:32.310Z,45.83
2022-11-04T20:56:20.748Z,45.80
2022-11-04T20:58:51.996Z,45.81
2022-11-04T21:01:27.246Z,45.63
2022-11-04T21:04:02.253Z,45.68
2022-11-04T21:06:31.420Z,45.45
2022-11-04T21:09:00.627Z,45.74
2022-11-04T21:11:31.809Z,45.83
2022-11-04T21:14:00.667Z,45.54
2022-11-04T21:16:27.545Z,45.58
2022-11-04T21:18:54.572Z,45.57
2022-11-04T21:21:21.258Z,45.63
2022-11-04T21:23:56.249Z,45.55
2022-11-04T21:26:24.716Z,45.52
2022-11-04T21:28:55.286Z,45.34
2022-11-04T21:31:22.500Z,45.55
2022-11-04T21:33:49.305Z,45.34
2022-11-04T21:36:15.943Z,45.39
2022-11-04T21:38:42.646Z,45.37
2022-11-04T21:41:25.262Z,45.22
2022-11-04T21:43:56.697Z,45.48
2022-11-04T21:46:24.311Z,45.40
2022-11-04T21:48:50.923Z,45.26
2022-11-04T21:51:26.234Z,45.40
2022-11-04T21:53:52.885Z,45.47
2022-11-04T21:56:23.248Z,45.82
2022-11-04T21:58:51.698Z,45.95
2022-11-04T22:01:21.196Z,46.08
2022-11-04T22:03:53.772Z,46.21
2022-11-04T22:06:21.024Z,46.39
2022-11-04T22:08:49.640Z,46.49
2022-11-04T22:11:19.713Z,46.51
2022-11-04T22:13:46.275Z,46.47
2022-11-04T22:16:16.126Z,46.53
2022-11-04T22:18:45.828Z,46.24
2022-11-04T22:21:16.999Z,46.42
2022-11-04T22:23:44.801Z,46.28
2022-11-04T22:26:14.371Z,46.22
2022-11-04T22:28:41.320Z,46.13
2022-11-04T22:31:09.587Z,46.12
2022-11-04T22:33:37.656Z,46.29
2022-11-04T22:36:07.759Z,46.10
2022-11-04T22:38:35.551Z,46.02
2022-11-04T22:41:03.771Z,46.22
2022-11-04T22:43:30.407Z,46.15
2022-11-04T22:45:57.755Z,46.13
2022-11-04T22:48:24.458Z,45.98
2022-11-04T22:53:04.639Z,45.95
2022-11-04T22:55:31.288Z,45.81
2022-11-04T22:57:57.804Z,45.74
2022-11-04T23:00:24.458Z,45.77
2022-11-04T23:02:52.402Z,45.73
2022-11-04T23:05:19.546Z,45.68
2022-11-04T23:07:46.078Z,45.88
2022-11-04T23:12:59.054Z,47.69
2022-11-04T23:15:44.266Z,48.68
2022-11-04T23:18:31.555Z,49.43
2022-11-04T23:21:16.779Z,49.82
2022-11-04T23:24:01.718Z,50.31
2022-11-04T23:26:29.034Z,50.38
2022-11-04T23:29:13.782Z,50.83
2022-11-04T23:31:40.572Z,51.09
2022-11-04T23:34:26.786Z,51.08
2022-11-04T23:37:11.837Z,51.02
2022-11-04T23:39:46.764Z,51.10
2022-11-04T23:42:22.862Z,51.05
2022-11-04T23:45:13.289Z,51.19
2022-11-04T23:50:48.178Z,51.17
2022-11-04T23:53:35.386Z,51.11
2022-11-04T23:56:20.936Z,51.22
2022-11-04T23:59:05.916Z,51.23
